Terminal Aerodrome Forecast
Issued by NWS Goodland, KS

Home | Current Version | Previous Version | Text Only | Print | Product List | Glossary On
Versions: 1 2 3 4 5 6 7 8 9 10 11 12 13 14
303
FTUS43 KGLD 261755
TAFGLD
TAF
KGLD 261755Z 2618/2718 06007KT P6SM SKC
     FM270200 13015G23KT P6SM VCTS BKN090CB
     FM270500 12014KT P6SM BKN090
     FM271000 08008KT P6SM BKN020 WS020/18035KT
     FM271100 03008KT P6SM BKN020 WS020/18030KT
     FM271300 01008KT P6SM BKN008
     FM271500 36012KT P6SM BKN015=

USA.gov is the U.S. government's official web portal to all federal, state and local government web resources and services.